Fernbank, Alabama
Current Conditions -  °F | °C
As of 6:58 PM on Wednesday 22 Oct 2014 (Local Time) from KCBM Reporting Station
Clear Clear  
Wind Chill: 58°   Ceiling: Unl
Heat Index: 58°   Visibility: 10mi
Dew Point: 46°   Wind: 5mph
Humidity: 65%   Direction: 360°N
Pressure: 30.14"   Gusts: NA
Location:  33.5494°N, 88.1933°W
Report Text: KCBM 222358Z AUTO 36004KT 10SM CLR 14/08 A3014 RMK AO2 SLP209 60000 T01440078 10210 20144 53005 $
Loading
Personal Weather Stations






























Interactive Weather Map
Tropical Storm Tracking
New forecast layout! Learn more

10-Day Weather Forecast

Advertisements
Track Severe Weather on mobile